sensor_id;sensor_type;location;lat;lon;timestamp;P1;durP1;ratioP1;P2;durP2;ratioP2
38779;SDS011;29273;49.962;9.768;2022-11-20T00:01:15;8.38;;;6.85;;
38779;SDS011;29273;49.962;9.768;2022-11-20T00:03:45;9.20;;;7.07;;
38779;SDS011;29273;49.962;9.768;2022-11-20T00:06:13;9.20;;;7.10;;
38779;SDS011;29273;49.962;9.768;2022-11-20T00:08:40;7.97;;;6.35;;
38779;SDS011;29273;49.962;9.768;2022-11-20T00:11:15;8.98;;;6.75;;
38779;SDS011;29273;49.962;9.768;2022-11-20T00:13:43;8.70;;;6.72;;
38779;SDS011;29273;49.962;9.768;2022-11-20T00:16:10;7.82;;;6.45;;
38779;SDS011;29273;49.962;9.768;2022-11-20T00:18:37;9.07;;;6.85;;
38779;SDS011;29273;49.962;9.768;2022-11-20T00:21:03;8.35;;;6.20;;
38779;SDS011;29273;49.962;9.768;2022-11-20T00:23:30;7.95;;;6.15;;
38779;SDS011;29273;49.962;9.768;2022-11-20T00:25:56;7.03;;;5.72;;
38779;SDS011;29273;49.962;9.768;2022-11-20T00:28:22;8.10;;;6.53;;
38779;SDS011;29273;49.962;9.768;2022-11-20T00:30:47;8.48;;;6.53;;
38779;SDS011;29273;49.962;9.768;2022-11-20T00:33:13;8.85;;;6.88;;
38779;SDS011;29273;49.962;9.768;2022-11-20T00:35:38;7.68;;;6.30;;
38779;SDS011;29273;49.962;9.768;2022-11-20T00:38:04;8.00;;;6.07;;
38779;SDS011;29273;49.962;9.768;2022-11-20T00:40:29;8.48;;;6.53;;
38779;SDS011;29273;49.962;9.768;2022-11-20T00:42:55;8.30;;;6.55;;
38779;SDS011;29273;49.962;9.768;2022-11-20T00:45:20;8.07;;;6.32;;
38779;SDS011;29273;49.962;9.768;2022-11-20T00:47:46;8.18;;;6.43;;
38779;SDS011;29273;49.962;9.768;2022-11-20T00:50:11;8.13;;;6.50;;
38779;SDS011;29273;49.962;9.768;2022-11-20T00:52:37;7.90;;;6.43;;
38779;SDS011;29273;49.962;9.768;2022-11-20T00:55:03;8.95;;;7.10;;
38779;SDS011;29273;49.962;9.768;2022-11-20T00:57:29;8.80;;;6.60;;
38779;SDS011;29273;49.962;9.768;2022-11-20T00:59:55;8.52;;;6.47;;
38779;SDS011;29273;49.962;9.768;2022-11-20T01:02:20;7.80;;;6.05;;
38779;SDS011;29273;49.962;9.768;2022-11-20T01:04:46;8.15;;;6.30;;
38779;SDS011;29273;49.962;9.768;2022-11-20T01:07:11;7.68;;;6.30;;
38779;SDS011;29273;49.962;9.768;2022-11-20T01:09:37;7.75;;;6.43;;
38779;SDS011;29273;49.962;9.768;2022-11-20T01:12:02;8.27;;;6.53;;
38779;SDS011;29273;49.962;9.768;2022-11-20T01:14:28;7.47;;;6.03;;
38779;SDS011;29273;49.962;9.768;2022-11-20T01:16:53;8.05;;;6.65;;
38779;SDS011;29273;49.962;9.768;2022-11-20T01:19:20;8.45;;;6.57;;
38779;SDS011;29273;49.962;9.768;2022-11-20T01:21:49;7.45;;;6.18;;
38779;SDS011;29273;49.962;9.768;2022-11-20T01:24:16;7.75;;;6.20;;
38779;SDS011;29273;49.962;9.768;2022-11-20T01:26:44;8.88;;;6.63;;
38779;SDS011;29273;49.962;9.768;2022-11-20T01:29:30;8.27;;;5.97;;
38779;SDS011;29273;49.962;9.768;2022-11-20T01:31:55;7.75;;;6.30;;
38779;SDS011;29273;49.962;9.768;2022-11-20T01:34:21;9.00;;;6.53;;
38779;SDS011;29273;49.962;9.768;2022-11-20T01:36:47;7.72;;;6.68;;
38779;SDS011;29273;49.962;9.768;2022-11-20T01:39:14;9.50;;;6.85;;
38779;SDS011;29273;49.962;9.768;2022-11-20T01:41:47;8.88;;;6.22;;
38779;SDS011;29273;49.962;9.768;2022-11-20T01:50:06;8.02;;;6.65;;
38779;SDS011;29273;49.962;9.768;2022-11-20T01:52:40;8.77;;;6.20;;
38779;SDS011;29273;49.962;9.768;2022-11-20T01:55:13;7.50;;;6.03;;
38779;SDS011;29273;49.962;9.768;2022-11-20T02:00:10;6.47;;;5.03;;
38779;SDS011;29273;49.962;9.768;2022-11-20T02:02:38;6.63;;;5.38;;
38779;SDS011;29273;49.962;9.768;2022-11-20T02:05:14;7.97;;;6.15;;
38779;SDS011;29273;49.962;9.768;2022-11-20T02:07:49;7.50;;;6.18;;
38779;SDS011;29273;49.962;9.768;2022-11-20T02:10:15;7.82;;;6.25;;
38779;SDS011;29273;49.962;9.768;2022-11-20T02:12:41;7.53;;;6.30;;
38779;SDS011;29273;49.962;9.768;2022-11-20T02:15:25;8.10;;;6.22;;
38779;SDS011;29273;49.962;9.768;2022-11-20T02:17:51;8.18;;;6.43;;
38779;SDS011;29273;49.962;9.768;2022-11-20T02:20:18;7.43;;;5.90;;
38779;SDS011;29273;49.962;9.768;2022-11-20T02:22:48;8.60;;;6.70;;
38779;SDS011;29273;49.962;9.768;2022-11-20T02:25:20;8.85;;;6.55;;
38779;SDS011;29273;49.962;9.768;2022-11-20T02:27:46;9.30;;;6.18;;
38779;SDS011;29273;49.962;9.768;2022-11-20T02:30:12;9.35;;;6.97;;
38779;SDS011;29273;49.962;9.768;2022-11-20T02:32:37;8.25;;;6.65;;
38779;SDS011;29273;49.962;9.768;2022-11-20T02:37:35;8.00;;;6.47;;
38779;SDS011;29273;49.962;9.768;2022-11-20T02:40:03;8.15;;;5.90;;
38779;SDS011;29273;49.962;9.768;2022-11-20T02:42:29;8.55;;;6.35;;
38779;SDS011;29273;49.962;9.768;2022-11-20T02:44:55;9.75;;;7.22;;
38779;SDS011;29273;49.962;9.768;2022-11-20T02:47:20;7.97;;;6.38;;
38779;SDS011;29273;49.962;9.768;2022-11-20T02:49:46;8.73;;;6.90;;
38779;SDS011;29273;49.962;9.768;2022-11-20T02:52:11;7.05;;;5.95;;
38779;SDS011;29273;49.962;9.768;2022-11-20T02:54:37;9.70;;;6.30;;
38779;SDS011;29273;49.962;9.768;2022-11-20T02:57:02;8.73;;;6.70;;
38779;SDS011;29273;49.962;9.768;2022-11-20T02:59:28;7.82;;;6.32;;
38779;SDS011;29273;49.962;9.768;2022-11-20T03:01:53;8.13;;;6.70;;
38779;SDS011;29273;49.962;9.768;2022-11-20T03:04:18;9.23;;;7.00;;
38779;SDS011;29273;49.962;9.768;2022-11-20T03:06:44;8.60;;;6.68;;
38779;SDS011;29273;49.962;9.768;2022-11-20T03:09:09;9.30;;;6.85;;
38779;SDS011;29273;49.962;9.768;2022-11-20T03:11:35;9.20;;;6.93;;
38779;SDS011;29273;49.962;9.768;2022-11-20T03:14:04;7.95;;;6.18;;
38779;SDS011;29273;49.962;9.768;2022-11-20T03:16:30;8.77;;;6.82;;
38779;SDS011;29273;49.962;9.768;2022-11-20T03:18:57;9.98;;;6.97;;
38779;SDS011;29273;49.962;9.768;2022-11-20T03:21:23;8.82;;;6.80;;
38779;SDS011;29273;49.962;9.768;2022-11-20T03:23:49;9.07;;;7.07;;
38779;SDS011;29273;49.962;9.768;2022-11-20T03:26:15;9.55;;;7.13;;
38779;SDS011;29273;49.962;9.768;2022-11-20T03:28:47;9.65;;;7.05;;
38779;SDS011;29273;49.962;9.768;2022-11-20T03:31:22;9.70;;;6.97;;
38779;SDS011;29273;49.962;9.768;2022-11-20T03:33:55;10.35;;;6.80;;
38779;SDS011;29273;49.962;9.768;2022-11-20T03:36:22;8.18;;;6.45;;
38779;SDS011;29273;49.962;9.768;2022-11-20T03:38:47;9.32;;;6.40;;
38779;SDS011;29273;49.962;9.768;2022-11-20T03:41:15;8.60;;;6.47;;
38779;SDS011;29273;49.962;9.768;2022-11-20T03:44:02;8.73;;;6.72;;
38779;SDS011;29273;49.962;9.768;2022-11-20T03:46:29;8.80;;;6.97;;
38779;SDS011;29273;49.962;9.768;2022-11-20T03:48:55;9.05;;;6.50;;
38779;SDS011;29273;49.962;9.768;2022-11-20T03:51:22;8.40;;;6.45;;
38779;SDS011;29273;49.962;9.768;2022-11-20T03:53:51;8.50;;;6.55;;
38779;SDS011;29273;49.962;9.768;2022-11-20T03:56:18;8.65;;;6.70;;
38779;SDS011;29273;49.962;9.768;2022-11-20T03:58:45;9.50;;;7.32;;
38779;SDS011;29273;49.962;9.768;2022-11-20T04:01:11;10.00;;;7.60;;
38779;SDS011;29273;49.962;9.768;2022-11-20T04:03:39;8.07;;;6.38;;
38779;SDS011;29273;49.962;9.768;2022-11-20T04:06:07;9.48;;;7.05;;
38779;SDS011;29273;49.962;9.768;2022-11-20T04:08:35;9.27;;;7.55;;
38779;SDS011;29273;49.962;9.768;2022-11-20T04:13:39;9.50;;;7.45;;
38779;SDS011;29273;49.962;9.768;2022-11-20T04:16:06;12.10;;;8.20;;
38779;SDS011;29273;49.962;9.768;2022-11-20T04:18:32;10.93;;;7.25;;
38779;SDS011;29273;49.962;9.768;2022-11-20T04:20:58;9.88;;;7.32;;
38779;SDS011;29273;49.962;9.768;2022-11-20T04:23:25;11.27;;;7.88;;
38779;SDS011;29273;49.962;9.768;2022-11-20T04:25:51;10.80;;;7.50;;
38779;SDS011;29273;49.962;9.768;2022-11-20T04:28:16;10.63;;;7.93;;
38779;SDS011;29273;49.962;9.768;2022-11-20T04:30:42;10.32;;;7.95;;
38779;SDS011;29273;49.962;9.768;2022-11-20T04:33:07;9.93;;;7.38;;
38779;SDS011;29273;49.962;9.768;2022-11-20T04:35:33;9.45;;;7.22;;
38779;SDS011;29273;49.962;9.768;2022-11-20T04:38:00;11.27;;;8.02;;
38779;SDS011;29273;49.962;9.768;2022-11-20T04:40:25;10.40;;;7.57;;
38779;SDS011;29273;49.962;9.768;2022-11-20T04:42:51;10.23;;;7.85;;
38779;SDS011;29273;49.962;9.768;2022-11-20T04:45:16;9.30;;;7.13;;
38779;SDS011;29273;49.962;9.768;2022-11-20T04:47:42;11.38;;;7.78;;
38779;SDS011;29273;49.962;9.768;2022-11-20T04:50:07;10.35;;;7.47;;
38779;SDS011;29273;49.962;9.768;2022-11-20T04:52:33;9.32;;;7.13;;
38779;SDS011;29273;49.962;9.768;2022-11-20T04:55:00;9.93;;;7.38;;
38779;SDS011;29273;49.962;9.768;2022-11-20T04:57:25;10.40;;;7.85;;
38779;SDS011;29273;49.962;9.768;2022-11-20T04:59:51;9.95;;;7.28;;
38779;SDS011;29273;49.962;9.768;2022-11-20T05:02:16;9.95;;;7.47;;
38779;SDS011;29273;49.962;9.768;2022-11-20T05:04:42;11.65;;;7.90;;
38779;SDS011;29273;49.962;9.768;2022-11-20T05:07:07;10.48;;;7.82;;
38779;SDS011;29273;49.962;9.768;2022-11-20T05:09:33;9.88;;;7.25;;
38779;SDS011;29273;49.962;9.768;2022-11-20T05:11:58;9.13;;;7.50;;
38779;SDS011;29273;49.962;9.768;2022-11-20T05:14:24;10.18;;;7.88;;
38779;SDS011;29273;49.962;9.768;2022-11-20T05:16:49;9.77;;;7.35;;
38779;SDS011;29273;49.962;9.768;2022-11-20T05:19:15;9.23;;;7.28;;
38779;SDS011;29273;49.962;9.768;2022-11-20T05:21:40;9.43;;;6.88;;
38779;SDS011;29273;49.962;9.768;2022-11-20T05:24:06;10.20;;;7.43;;
38779;SDS011;29273;49.962;9.768;2022-11-20T05:26:32;10.88;;;7.72;;
38779;SDS011;29273;49.962;9.768;2022-11-20T05:28:57;9.63;;;7.10;;
38779;SDS011;29273;49.962;9.768;2022-11-20T05:31:23;10.98;;;7.95;;
38779;SDS011;29273;49.962;9.768;2022-11-20T05:33:49;9.30;;;7.10;;
38779;SDS011;29273;49.962;9.768;2022-11-20T05:36:15;8.70;;;6.90;;
38779;SDS011;29273;49.962;9.768;2022-11-20T05:38:41;8.82;;;6.70;;
38779;SDS011;29273;49.962;9.768;2022-11-20T05:41:09;9.60;;;7.00;;
38779;SDS011;29273;49.962;9.768;2022-11-20T05:43:37;10.23;;;7.70;;
38779;SDS011;29273;49.962;9.768;2022-11-20T05:46:04;10.00;;;7.55;;
38779;SDS011;29273;49.962;9.768;2022-11-20T05:48:31;10.55;;;7.90;;
38779;SDS011;29273;49.962;9.768;2022-11-20T05:50:58;10.35;;;7.53;;
38779;SDS011;29273;49.962;9.768;2022-11-20T05:53:25;9.60;;;7.63;;
38779;SDS011;29273;49.962;9.768;2022-11-20T05:56:00;9.73;;;7.20;;
38779;SDS011;29273;49.962;9.768;2022-11-20T05:58:27;9.55;;;7.22;;
38779;SDS011;29273;49.962;9.768;2022-11-20T06:00:53;8.73;;;6.82;;
38779;SDS011;29273;49.962;9.768;2022-11-20T06:03:18;10.00;;;7.57;;
38779;SDS011;29273;49.962;9.768;2022-11-20T06:05:44;10.38;;;7.25;;
38779;SDS011;29273;49.962;9.768;2022-11-20T06:08:09;9.73;;;7.65;;
38779;SDS011;29273;49.962;9.768;2022-11-20T06:10:35;9.50;;;7.47;;
38779;SDS011;29273;49.962;9.768;2022-11-20T06:13:00;9.65;;;7.65;;
38779;SDS011;29273;49.962;9.768;2022-11-20T06:15:26;10.23;;;7.57;;
38779;SDS011;29273;49.962;9.768;2022-11-20T06:17:52;10.15;;;7.32;;
38779;SDS011;29273;49.962;9.768;2022-11-20T06:20:19;10.35;;;7.45;;
38779;SDS011;29273;49.962;9.768;2022-11-20T06:22:45;10.18;;;7.93;;
38779;SDS011;29273;49.962;9.768;2022-11-20T06:25:10;9.65;;;7.53;;
38779;SDS011;29273;49.962;9.768;2022-11-20T06:27:36;11.07;;;7.78;;
38779;SDS011;29273;49.962;9.768;2022-11-20T06:30:02;11.73;;;8.23;;
38779;SDS011;29273;49.962;9.768;2022-11-20T06:32:27;8.85;;;7.30;;
38779;SDS011;29273;49.962;9.768;2022-11-20T06:34:53;10.77;;;7.53;;
38779;SDS011;29273;49.962;9.768;2022-11-20T06:37:19;8.57;;;6.80;;
38779;SDS011;29273;49.962;9.768;2022-11-20T06:39:44;10.18;;;7.90;;
38779;SDS011;29273;49.962;9.768;2022-11-20T06:42:09;9.18;;;6.60;;
38779;SDS011;29273;49.962;9.768;2022-11-20T06:44:35;9.60;;;7.13;;
38779;SDS011;29273;49.962;9.768;2022-11-20T06:47:00;9.00;;;6.55;;
38779;SDS011;29273;49.962;9.768;2022-11-20T06:49:26;10.23;;;7.30;;
38779;SDS011;29273;49.962;9.768;2022-11-20T06:51:51;8.80;;;6.97;;
38779;SDS011;29273;49.962;9.768;2022-11-20T06:54:17;9.57;;;7.40;;
38779;SDS011;29273;49.962;9.768;2022-11-20T06:56:45;9.82;;;6.97;;
38779;SDS011;29273;49.962;9.768;2022-11-20T06:59:12;10.15;;;7.95;;
38779;SDS011;29273;49.962;9.768;2022-11-20T07:01:38;11.23;;;8.25;;
38779;SDS011;29273;49.962;9.768;2022-11-20T07:04:03;13.13;;;8.90;;
38779;SDS011;29273;49.962;9.768;2022-11-20T07:06:29;11.93;;;8.75;;
38779;SDS011;29273;49.962;9.768;2022-11-20T07:08:55;11.10;;;8.77;;
38779;SDS011;29273;49.962;9.768;2022-11-20T07:11:20;9.95;;;8.10;;
38779;SDS011;29273;49.962;9.768;2022-11-20T07:13:46;12.18;;;8.60;;
38779;SDS011;29273;49.962;9.768;2022-11-20T07:16:11;11.30;;;8.05;;
38779;SDS011;29273;49.962;9.768;2022-11-20T07:18:37;10.32;;;7.72;;
38779;SDS011;29273;49.962;9.768;2022-11-20T07:21:03;10.82;;;7.63;;
38779;SDS011;29273;49.962;9.768;2022-11-20T07:23:30;11.25;;;8.23;;
38779;SDS011;29273;49.962;9.768;2022-11-20T07:25:55;10.13;;;7.57;;
38779;SDS011;29273;49.962;9.768;2022-11-20T07:28:21;12.18;;;8.65;;
38779;SDS011;29273;49.962;9.768;2022-11-20T07:30:50;9.90;;;7.75;;
38779;SDS011;29273;49.962;9.768;2022-11-20T07:33:16;12.32;;;8.25;;
38779;SDS011;29273;49.962;9.768;2022-11-20T07:35:42;10.82;;;8.15;;
38779;SDS011;29273;49.962;9.768;2022-11-20T07:38:07;12.10;;;8.10;;
38779;SDS011;29273;49.962;9.768;2022-11-20T07:40:33;12.02;;;7.95;;
38779;SDS011;29273;49.962;9.768;2022-11-20T07:42:58;10.50;;;7.63;;
38779;SDS011;29273;49.962;9.768;2022-11-20T07:45:24;12.57;;;7.88;;
38779;SDS011;29273;49.962;9.768;2022-11-20T07:47:50;11.40;;;8.05;;
38779;SDS011;29273;49.962;9.768;2022-11-20T07:50:16;11.25;;;8.38;;
38779;SDS011;29273;49.962;9.768;2022-11-20T07:52:42;12.27;;;8.20;;
38779;SDS011;29273;49.962;9.768;2022-11-20T07:55:08;11.18;;;8.25;;
38779;SDS011;29273;49.962;9.768;2022-11-20T07:57:34;11.93;;;7.85;;
38779;SDS011;29273;49.962;9.768;2022-11-20T08:00:00;12.38;;;8.35;;
38779;SDS011;29273;49.962;9.768;2022-11-20T08:02:26;11.68;;;7.85;;
38779;SDS011;29273;49.962;9.768;2022-11-20T08:04:51;11.82;;;8.38;;
38779;SDS011;29273;49.962;9.768;2022-11-20T08:07:17;14.02;;;9.48;;
38779;SDS011;29273;49.962;9.768;2022-11-20T08:09:42;13.02;;;8.65;;
38779;SDS011;29273;49.962;9.768;2022-11-20T08:12:09;13.80;;;8.43;;
38779;SDS011;29273;49.962;9.768;2022-11-20T08:15:04;11.30;;;8.30;;
38779;SDS011;29273;49.962;9.768;2022-11-20T08:17:30;12.23;;;7.97;;
38779;SDS011;29273;49.962;9.768;2022-11-20T08:19:56;11.60;;;8.57;;
38779;SDS011;29273;49.962;9.768;2022-11-20T08:22:21;11.85;;;8.32;;
38779;SDS011;29273;49.962;9.768;2022-11-20T08:24:47;13.10;;;8.52;;
38779;SDS011;29273;49.962;9.768;2022-11-20T08:27:13;11.90;;;8.02;;
38779;SDS011;29273;49.962;9.768;2022-11-20T08:29:38;10.18;;;7.72;;
38779;SDS011;29273;49.962;9.768;2022-11-20T08:32:04;12.60;;;8.43;;
38779;SDS011;29273;49.962;9.768;2022-11-20T08:34:29;11.43;;;7.90;;
38779;SDS011;29273;49.962;9.768;2022-11-20T08:36:55;12.32;;;8.40;;
38779;SDS011;29273;49.962;9.768;2022-11-20T08:39:20;12.23;;;8.65;;
38779;SDS011;29273;49.962;9.768;2022-11-20T08:41:46;12.80;;;8.68;;
38779;SDS011;29273;49.962;9.768;2022-11-20T08:44:11;13.27;;;8.50;;
38779;SDS011;29273;49.962;9.768;2022-11-20T08:46:37;11.77;;;8.50;;
38779;SDS011;29273;49.962;9.768;2022-11-20T08:49:06;13.73;;;8.80;;
38779;SDS011;29273;49.962;9.768;2022-11-20T08:51:34;11.70;;;8.60;;
38779;SDS011;29273;49.962;9.768;2022-11-20T08:54:00;12.43;;;8.30;;
38779;SDS011;29273;49.962;9.768;2022-11-20T08:56:26;11.95;;;8.70;;
38779;SDS011;29273;49.962;9.768;2022-11-20T08:58:51;11.73;;;8.43;;
38779;SDS011;29273;49.962;9.768;2022-11-20T09:01:18;11.13;;;7.78;;
38779;SDS011;29273;49.962;9.768;2022-11-20T09:03:44;12.52;;;8.02;;
38779;SDS011;29273;49.962;9.768;2022-11-20T09:06:09;12.07;;;8.40;;
38779;SDS011;29273;49.962;9.768;2022-11-20T09:08:35;12.18;;;8.48;;
38779;SDS011;29273;49.962;9.768;2022-11-20T09:11:01;12.40;;;8.23;;
38779;SDS011;29273;49.962;9.768;2022-11-20T09:13:28;11.45;;;8.27;;
38779;SDS011;29273;49.962;9.768;2022-11-20T09:15:55;12.48;;;8.70;;
38779;SDS011;29273;49.962;9.768;2022-11-20T09:18:26;10.32;;;7.68;;
38779;SDS011;29273;49.962;9.768;2022-11-20T09:20:55;11.73;;;8.38;;
38779;SDS011;29273;49.962;9.768;2022-11-20T09:23:22;9.82;;;7.57;;
38779;SDS011;29273;49.962;9.768;2022-11-20T09:25:48;9.70;;;7.28;;
38779;SDS011;29273;49.962;9.768;2022-11-20T09:28:13;11.77;;;8.40;;
38779;SDS011;29273;49.962;9.768;2022-11-20T09:30:39;11.35;;;8.38;;
38779;SDS011;29273;49.962;9.768;2022-11-20T09:33:05;11.07;;;7.78;;
38779;SDS011;29273;49.962;9.768;2022-11-20T09:35:31;11.65;;;8.35;;
38779;SDS011;29273;49.962;9.768;2022-11-20T09:37:57;10.82;;;7.45;;
38779;SDS011;29273;49.962;9.768;2022-11-20T09:40:24;11.63;;;8.48;;
38779;SDS011;29273;49.962;9.768;2022-11-20T09:45:50;12.32;;;7.90;;
38779;SDS011;29273;49.962;9.768;2022-11-20T09:51:43;10.60;;;7.45;;
38779;SDS011;29273;49.962;9.768;2022-11-20T09:56:45;10.45;;;7.32;;
38779;SDS011;29273;49.962;9.768;2022-11-20T10:04:51;10.43;;;7.60;;
38779;SDS011;29273;49.962;9.768;2022-11-20T10:07:25;12.32;;;8.75;;
38779;SDS011;29273;49.962;9.768;2022-11-20T10:10:00;12.88;;;8.48;;
38779;SDS011;29273;49.962;9.768;2022-11-20T10:20:53;10.20;;;7.80;;
38779;SDS011;29273;49.962;9.768;2022-11-20T10:26:04;13.20;;;8.70;;
38779;SDS011;29273;49.962;9.768;2022-11-20T10:34:35;12.40;;;8.23;;
38779;SDS011;29273;49.962;9.768;2022-11-20T10:37:16;11.10;;;8.30;;
38779;SDS011;29273;49.962;9.768;2022-11-20T10:39:50;12.00;;;9.32;;
38779;SDS011;29273;49.962;9.768;2022-11-20T10:42:24;15.90;;;10.60;;
38779;SDS011;29273;49.962;9.768;2022-11-20T10:44:58;14.88;;;10.65;;
38779;SDS011;29273;49.962;9.768;2022-11-20T10:47:36;15.55;;;10.95;;
38779;SDS011;29273;49.962;9.768;2022-11-20T10:50:03;15.10;;;9.75;;
38779;SDS011;29273;49.962;9.768;2022-11-20T10:58:04;13.25;;;8.75;;
38779;SDS011;29273;49.962;9.768;2022-11-20T11:00:38;12.77;;;9.02;;
38779;SDS011;29273;49.962;9.768;2022-11-20T11:03:23;12.23;;;8.40;;
38779;SDS011;29273;49.962;9.768;2022-11-20T11:06:08;12.93;;;8.73;;
38779;SDS011;29273;49.962;9.768;2022-11-20T11:08:44;11.10;;;7.93;;
38779;SDS011;29273;49.962;9.768;2022-11-20T11:11:20;11.18;;;7.53;;
38779;SDS011;29273;49.962;9.768;2022-11-20T11:13:51;11.77;;;8.38;;
38779;SDS011;29273;49.962;9.768;2022-11-20T11:16:19;12.77;;;8.80;;
38779;SDS011;29273;49.962;9.768;2022-11-20T11:18:49;11.82;;;8.20;;
38779;SDS011;29273;49.962;9.768;2022-11-20T11:21:25;12.60;;;8.82;;
38779;SDS011;29273;49.962;9.768;2022-11-20T11:23:59;13.73;;;8.70;;
38779;SDS011;29273;49.962;9.768;2022-11-20T11:26:25;11.25;;;8.48;;
38779;SDS011;29273;49.962;9.768;2022-11-20T11:28:53;11.25;;;7.95;;
38779;SDS011;29273;49.962;9.768;2022-11-20T11:36:51;12.77;;;8.48;;
38779;SDS011;29273;49.962;9.768;2022-11-20T11:39:21;10.63;;;8.05;;
38779;SDS011;29273;49.962;9.768;2022-11-20T11:41:46;11.88;;;8.38;;
38779;SDS011;29273;49.962;9.768;2022-11-20T11:47:03;11.27;;;8.23;;
38779;SDS011;29273;49.962;9.768;2022-11-20T11:49:30;11.38;;;8.02;;
38779;SDS011;29273;49.962;9.768;2022-11-20T11:54:34;11.00;;;7.97;;
38779;SDS011;29273;49.962;9.768;2022-11-20T12:00:35;11.82;;;8.10;;
38779;SDS011;29273;49.962;9.768;2022-11-20T12:02:57;12.60;;;8.48;;
38779;SDS011;29273;49.962;9.768;2022-11-20T12:05:45;11.30;;;7.70;;
38779;SDS011;29273;49.962;9.768;2022-11-20T12:10:56;12.57;;;8.98;;
38779;SDS011;29273;49.962;9.768;2022-11-20T12:13:48;12.65;;;8.13;;
38779;SDS011;29273;49.962;9.768;2022-11-20T12:16:28;12.77;;;8.57;;
38779;SDS011;29273;49.962;9.768;2022-11-20T12:18:59;12.60;;;8.05;;
38779;SDS011;29273;49.962;9.768;2022-11-20T12:24:21;10.38;;;7.28;;
38779;SDS011;29273;49.962;9.768;2022-11-20T12:30:05;10.32;;;7.05;;
38779;SDS011;29273;49.962;9.768;2022-11-20T12:50:18;11.50;;;7.80;;
38779;SDS011;29273;49.962;9.768;2022-11-20T12:52:51;10.73;;;7.82;;
38779;SDS011;29273;49.962;9.768;2022-11-20T13:00:54;9.50;;;6.75;;
38779;SDS011;29273;49.962;9.768;2022-11-20T13:06:17;11.20;;;8.15;;
38779;SDS011;29273;49.962;9.768;2022-11-20T13:08:52;12.20;;;7.75;;
38779;SDS011;29273;49.962;9.768;2022-11-20T13:11:27;11.60;;;8.18;;
38779;SDS011;29273;49.962;9.768;2022-11-20T13:14:05;12.25;;;8.80;;
38779;SDS011;29273;49.962;9.768;2022-11-20T13:19:08;10.93;;;7.90;;
38779;SDS011;29273;49.962;9.768;2022-11-20T13:24:07;10.73;;;7.85;;
38779;SDS011;29273;49.962;9.768;2022-11-20T13:27:02;9.48;;;6.75;;
38779;SDS011;29273;49.962;9.768;2022-11-20T13:29:38;9.95;;;7.38;;
38779;SDS011;29273;49.962;9.768;2022-11-20T13:34:52;10.63;;;7.10;;
38779;SDS011;29273;49.962;9.768;2022-11-20T13:37:28;10.40;;;7.03;;
38779;SDS011;29273;49.962;9.768;2022-11-20T13:42:37;9.02;;;6.95;;
38779;SDS011;29273;49.962;9.768;2022-11-20T13:45:26;8.38;;;6.68;;
38779;SDS011;29273;49.962;9.768;2022-11-20T13:47:52;9.43;;;6.63;;
38779;SDS011;29273;49.962;9.768;2022-11-20T13:50:19;11.20;;;7.82;;
38779;SDS011;29273;49.962;9.768;2022-11-20T14:00:47;10.13;;;7.25;;
38779;SDS011;29273;49.962;9.768;2022-11-20T14:03:23;10.68;;;8.00;;
38779;SDS011;29273;49.962;9.768;2022-11-20T14:06:00;12.70;;;8.15;;
38779;SDS011;29273;49.962;9.768;2022-11-20T14:08:35;11.80;;;8.20;;
38779;SDS011;29273;49.962;9.768;2022-11-20T14:11:18;10.35;;;7.95;;
38779;SDS011;29273;49.962;9.768;2022-11-20T14:13:59;10.77;;;6.78;;
38779;SDS011;29273;49.962;9.768;2022-11-20T14:16:29;10.55;;;7.30;;
38779;SDS011;29273;49.962;9.768;2022-11-20T14:18:56;10.52;;;7.60;;
38779;SDS011;29273;49.962;9.768;2022-11-20T14:21:27;10.45;;;7.28;;
38779;SDS011;29273;49.962;9.768;2022-11-20T14:24:04;10.05;;;6.82;;
38779;SDS011;29273;49.962;9.768;2022-11-20T14:26:31;9.23;;;6.45;;
38779;SDS011;29273;49.962;9.768;2022-11-20T14:28:57;9.23;;;6.80;;
38779;SDS011;29273;49.962;9.768;2022-11-20T14:31:23;9.45;;;6.97;;
38779;SDS011;29273;49.962;9.768;2022-11-20T14:33:52;8.88;;;6.60;;
38779;SDS011;29273;49.962;9.768;2022-11-20T14:36:20;9.25;;;6.20;;
38779;SDS011;29273;49.962;9.768;2022-11-20T14:38:48;8.80;;;6.43;;
38779;SDS011;29273;49.962;9.768;2022-11-20T14:41:22;8.60;;;5.97;;
38779;SDS011;29273;49.962;9.768;2022-11-20T14:43:58;7.70;;;5.75;;
38779;SDS011;29273;49.962;9.768;2022-11-20T14:46:25;8.10;;;5.68;;
38779;SDS011;29273;49.962;9.768;2022-11-20T14:48:56;7.82;;;5.85;;
38779;SDS011;29273;49.962;9.768;2022-11-20T14:51:26;7.65;;;5.45;;
38779;SDS011;29273;49.962;9.768;2022-11-20T14:54:11;7.03;;;5.22;;
38779;SDS011;29273;49.962;9.768;2022-11-20T14:56:42;8.18;;;4.75;;
38779;SDS011;29273;49.962;9.768;2022-11-20T14:59:23;6.75;;;5.15;;
38779;SDS011;29273;49.962;9.768;2022-11-20T15:02:03;8.23;;;5.72;;
38779;SDS011;29273;49.962;9.768;2022-11-20T15:04:31;7.47;;;5.93;;
38779;SDS011;29273;49.962;9.768;2022-11-20T15:06:58;7.55;;;5.60;;
38779;SDS011;29273;49.962;9.768;2022-11-20T15:09:25;8.32;;;6.13;;
38779;SDS011;29273;49.962;9.768;2022-11-20T15:11:59;8.10;;;5.90;;
38779;SDS011;29273;49.962;9.768;2022-11-20T15:14:27;9.48;;;6.28;;
38779;SDS011;29273;49.962;9.768;2022-11-20T15:16:54;6.85;;;5.40;;
38779;SDS011;29273;49.962;9.768;2022-11-20T15:19:21;7.97;;;5.95;;
38779;SDS011;29273;49.962;9.768;2022-11-20T15:21:48;10.77;;;6.40;;
38779;SDS011;29273;49.962;9.768;2022-11-20T15:24:14;9.85;;;6.82;;
38779;SDS011;29273;49.962;9.768;2022-11-20T15:26:40;8.30;;;6.03;;
38779;SDS011;29273;49.962;9.768;2022-11-20T15:29:08;9.07;;;6.10;;
38779;SDS011;29273;49.962;9.768;2022-11-20T15:31:36;8.75;;;6.28;;
38779;SDS011;29273;49.962;9.768;2022-11-20T15:34:02;9.82;;;6.30;;
38779;SDS011;29273;49.962;9.768;2022-11-20T15:36:32;9.13;;;6.63;;
38779;SDS011;29273;49.962;9.768;2022-11-20T15:38:57;8.73;;;6.25;;
38779;SDS011;29273;49.962;9.768;2022-11-20T15:41:23;8.45;;;6.43;;
38779;SDS011;29273;49.962;9.768;2022-11-20T15:43:48;9.75;;;6.53;;
38779;SDS011;29273;49.962;9.768;2022-11-20T15:46:15;8.82;;;6.07;;
38779;SDS011;29273;49.962;9.768;2022-11-20T15:48:47;9.10;;;6.32;;
38779;SDS011;29273;49.962;9.768;2022-11-20T15:51:22;9.80;;;6.82;;
38779;SDS011;29273;49.962;9.768;2022-11-20T15:53:51;9.13;;;6.20;;
38779;SDS011;29273;49.962;9.768;2022-11-20T15:56:17;8.55;;;6.63;;
38779;SDS011;29273;49.962;9.768;2022-11-20T15:58:42;9.27;;;6.50;;
38779;SDS011;29273;49.962;9.768;2022-11-20T16:01:12;8.18;;;5.97;;
38779;SDS011;29273;49.962;9.768;2022-11-20T16:03:39;9.63;;;5.60;;
38779;SDS011;29273;49.962;9.768;2022-11-20T16:06:05;9.77;;;6.15;;
38779;SDS011;29273;49.962;9.768;2022-11-20T16:08:31;9.38;;;6.32;;
38779;SDS011;29273;49.962;9.768;2022-11-20T16:10:57;9.93;;;6.50;;
38779;SDS011;29273;49.962;9.768;2022-11-20T16:13:22;9.38;;;6.63;;
38779;SDS011;29273;49.962;9.768;2022-11-20T16:16:07;9.20;;;6.28;;
38779;SDS011;29273;49.962;9.768;2022-11-20T16:18:43;10.00;;;7.50;;
38779;SDS011;29273;49.962;9.768;2022-11-20T16:21:10;10.38;;;6.97;;
38779;SDS011;29273;49.962;9.768;2022-11-20T16:23:38;10.43;;;7.30;;
38779;SDS011;29273;49.962;9.768;2022-11-20T16:26:11;11.13;;;7.57;;
38779;SDS011;29273;49.962;9.768;2022-11-20T16:28:38;10.10;;;7.32;;
38779;SDS011;29273;49.962;9.768;2022-11-20T16:31:10;9.80;;;7.20;;
38779;SDS011;29273;49.962;9.768;2022-11-20T16:33:41;10.98;;;6.60;;
38779;SDS011;29273;49.962;9.768;2022-11-20T16:36:15;10.05;;;6.60;;
38779;SDS011;29273;49.962;9.768;2022-11-20T16:38:40;8.75;;;6.55;;
38779;SDS011;29273;49.962;9.768;2022-11-20T16:41:07;8.70;;;6.18;;
38779;SDS011;29273;49.962;9.768;2022-11-20T16:43:49;9.18;;;6.22;;
38779;SDS011;29273;49.962;9.768;2022-11-20T16:46:18;11.07;;;7.00;;